Time;durP1;ratioP1;P1;durP2;ratioP2;P2;SDS_P1;SDS_P2;PMS_P1;PMS_P2;Temp;Humidity;BMP_temperature;BMP_pressure;BME280_temperature;BME280_humidity;BME280_pressure;Samples;Min_cycle;Max_cycle;Signal;HPM_P1;HPM_P2
2022/11/15 00:00:16;;;;;;;;;;;;;;;6.03;100.00;100825.09;5045923;28;19928;-76
2022/11/15 00:02:42;;;;;;;;;;;;;;;6.00;100.00;100812.00;5027231;28;19933;-76
2022/11/15 00:05:07;;;;;;;;;;;;;;;5.97;100.00;100818.22;5002000;28;20020;-77
2022/11/15 00:07:33;;;;;;;;;;;;;;;5.96;100.00;100825.25;5027384;28;20311;-76
2022/11/15 00:09:58;;;;;;;;;;;;;;;5.96;100.00;100819.13;5026983;28;19990;-77
2022/11/15 00:12:23;;;;;;;;;;;;;;;5.97;100.00;100819.09;5045359;28;20075;-77
2022/11/15 00:14:49;;;;;;;;;;;;;;;5.97;100.00;100824.34;5046409;28;20316;-77
2022/11/15 00:17:14;;;;;;;;;;;;;;;5.97;100.00;100819.09;5026644;28;19929;-76
2022/11/15 00:19:39;;;;;;;;;;;;;;;5.99;100.00;100824.28;5032113;28;19933;-77
2022/11/15 00:22:08;;;;;;;;;;;;;;;6.01;100.00;100825.13;5031672;28;19959;-76
2022/11/15 00:24:33;;;;;;;;;;;;;;;6.01;100.00;100825.13;5029808;28;19958;-76
2022/11/15 00:26:59;;;;;;;;;;;;;;;6.02;100.00;100819.00;5017039;28;19932;-76
2022/11/15 00:29:24;;;;;;;;;;;;;;;6.01;100.00;100801.47;5030651;28;20325;-76
2022/11/15 00:31:49;;;;;;;;;;;;;;;6.01;100.00;100804.09;5047295;28;20565;-76
2022/11/15 00:34:15;;;;;;;;;;;;;;;6.00;100.00;100805.00;5046441;28;19939;-76
2022/11/15 00:36:40;;;;;;;;;;;;;;;6.01;100.00;100795.34;5042960;28;19934;-77
2022/11/15 00:39:06;;;;;;;;;;;;;;;6.01;100.00;100798.84;5046208;28;21518;-77
2022/11/15 00:41:31;;;;;;;;;;;;;;;6.01;100.00;100780.44;5014099;28;20647;-77
2022/11/15 00:44:00;;;;;;;;;;;;;;;6.01;100.00;100784.81;5046486;28;19939;-77
2022/11/15 00:46:25;;;;;;;;;;;;;;;5.99;100.00;100787.47;5032734;28;19928;-77
2022/11/15 00:48:50;;;;;;;;;;;;;;;5.99;100.00;100790.09;5045611;28;20096;-77
2022/11/15 00:51:19;;;;;;;;;;;;;;;5.98;100.00;100789.25;5045578;28;19990;-77
2022/11/15 00:53:44;;;;;;;;;;;;;;;5.98;100.00;100781.38;5046695;28;19925;-77
2022/11/15 00:56:10;;;;;;;;;;;;;;;5.97;100.00;100778.78;5045944;28;19938;-77
2022/11/15 00:58:35;;;;;;;;;;;;;;;5.96;100.00;100777.06;5046031;28;19999;-77
2022/11/15 01:01:07;;;;;;;;;;;;;;;5.96;100.00;100777.06;5045832;28;19940;-77
2022/11/15 01:03:33;;;;;;;;;;;;;;;5.94;100.00;100771.00;5029889;28;19995;-77
2022/11/15 01:06:01;;;;;;;;;;;;;;;5.94;100.00;100776.25;5045095;28;20841;-77
2022/11/15 01:08:26;;;;;;;;;;;;;;;5.92;100.00;100772.78;5045569;28;19938;-77
2022/11/15 01:10:52;;;;;;;;;;;;;;;5.92;100.00;100772.78;5044605;28;20420;-77
2022/11/15 01:13:17;;;;;;;;;;;;;;;5.89;100.00;100765.84;5045726;28;20327;-76
2022/11/15 01:15:43;;;;;;;;;;;;;;;5.84;100.00;100765.97;5045287;28;20531;-77
2022/11/15 01:18:08;;;;;;;;;;;;;;;5.79;100.00;100767.88;5030924;28;19971;-77
2022/11/15 01:20:34;;;;;;;;;;;;;;;5.77;100.00;100774.09;5018901;28;19960;-77
2022/11/15 01:22:59;;;;;;;;;;;;;;;5.75;100.00;100775.88;5029487;28;20394;-77
2022/11/15 01:25:24;;;;;;;;;;;;;;;5.70;100.00;100773.38;5018502;28;20493;-77
2022/11/15 01:27:50;;;;;;;;;;;;;;;5.67;100.00;100766.41;5044965;28;19932;-77
2022/11/15 01:30:15;;;;;;;;;;;;;;;5.63;100.00;100769.19;5025540;28;20168;-77
2022/11/15 01:32:41;;;;;;;;;;;;;;;5.62;100.00;100767.47;5029139;28;19932;-77
2022/11/15 01:35:06;;;;;;;;;;;;;;;5.58;100.00;100754.38;5044914;28;19964;-76
2022/11/15 01:37:32;;;;;;;;;;;;;;;5.55;100.00;100757.09;5029138;28;20027;-77
2022/11/15 01:39:57;;;;;;;;;;;;;;;5.52;100.00;100757.19;5026780;28;20023;-77
2022/11/15 01:42:22;;;;;;;;;;;;;;;5.48;100.00;100752.91;5024778;28;20430;-77
2022/11/15 01:44:51;;;;;;;;;;;;;;;5.43;100.00;100766.16;5025284;28;19978;-77
2022/11/15 01:47:17;;;;;;;;;;;;;;;5.40;100.00;100768.00;5024525;28;19929;-77
2022/11/15 01:50:01;;;;;;;;;;;;;;;5.38;100.00;100773.28;5024895;28;19952;-77
2022/11/15 01:52:26;;;;;;;;;;;;;;;5.35;100.00;100754.13;5014618;28;19928;-77
2022/11/15 01:54:56;;;;;;;;;;;;;;;5.32;100.00;100765.56;5028282;28;19936;-76
2022/11/15 01:57:22;;;;;;;;;;;;;;;5.29;100.00;100758.63;5030291;28;19925;-77
2022/11/15 01:59:47;;;;;;;;;;;;;;;5.26;100.00;100755.22;5039889;28;19936;-77
2022/11/15 02:02:13;;;;;;;;;;;;;;;5.22;100.00;100754.44;5039078;28;19924;-76
2022/11/15 02:04:43;;;;;;;;;;;;;;;5.19;100.00;100749.25;5057194;28;19932;-76
2022/11/15 02:07:09;;;;;;;;;;;;;;;5.18;100.00;100746.66;5027144;28;20019;-77
2022/11/15 02:09:35;;;;;;;;;;;;;;;5.16;100.00;100738.81;5025603;28;20390;-77
2022/11/15 02:12:01;;;;;;;;;;;;;;;5.16;100.00;100734.44;5024224;28;19929;-77
2022/11/15 02:14:26;;;;;;;;;;;;;;;5.16;100.00;100728.31;5019947;28;19931;-77
2022/11/15 02:16:59;;;;;;;;;;;;;;;5.15;100.00;100731.84;5027766;28;19932;-77
2022/11/15 02:19:33;;;;;;;;;;;;;;;5.15;100.00;100732.72;5028976;28;19928;-77
2022/11/15 02:21:59;;;;;;;;;;;;;;;5.16;100.00;100721.31;5043783;28;19929;-77
2022/11/15 02:24:24;;;;;;;;;;;;;;;5.16;100.00;100733.56;5028243;28;19982;-77
2022/11/15 02:27:02;;;;;;;;;;;;;;;5.18;100.00;100729.16;5029073;28;20008;-77
2022/11/15 02:29:46;;;;;;;;;;;;;;;5.19;100.00;100733.50;5029386;28;19929;-77
2022/11/15 02:32:14;;;;;;;;;;;;;;;5.18;100.00;100726.53;5028491;28;19944;-77
2022/11/15 02:34:48;;;;;;;;;;;;;;;5.19;100.00;100724.75;5030455;28;19998;-77
2022/11/15 02:37:14;;;;;;;;;;;;;;;5.19;100.00;100722.13;5032896;28;19929;-77
2022/11/15 02:39:58;;;;;;;;;;;;;;;5.19;100.00;100717.75;5028611;28;19929;-77
2022/11/15 02:45:12;;;;;;;;;;;;;;;5.22;100.00;100701.94;5030188;28;19929;-77
2022/11/15 02:47:43;;;;;;;;;;;;;;;5.23;100.00;100708.06;5027956;28;19933;-77
2022/11/15 02:50:12;;;;;;;;;;;;;;;5.24;100.00;100707.16;5028097;28;19932;-77
2022/11/15 02:52:38;;;;;;;;;;;;;;;5.24;100.00;100705.38;5013695;28;19967;-77
2022/11/15 02:55:03;;;;;;;;;;;;;;;5.24;100.00;100697.50;5032040;28;20023;-77
2022/11/15 02:57:39;;;;;;;;;;;;;;;5.26;100.00;100697.47;5028063;28;19979;-77
2022/11/15 03:00:04;;;;;;;;;;;;;;;5.26;100.00;100698.34;5028087;28;19928;-77
2022/11/15 03:02:30;;;;;;;;;;;;;;;5.27;100.00;100693.94;5035856;28;20296;-77
2022/11/15 03:04:56;;;;;;;;;;;;;;;5.28;100.00;100679.91;5027662;28;20291;-77
2022/11/15 03:07:24;;;;;;;;;;;;;;;5.28;100.00;100683.41;5029302;28;19928;-77
2022/11/15 03:09:52;;;;;;;;;;;;;;;5.30;100.00;100672.88;5014510;28;19933;-77
2022/11/15 03:12:22;;;;;;;;;;;;;;;5.30;100.00;100678.97;5027976;28;19968;-77
2022/11/15 03:14:48;;;;;;;;;;;;;;;5.33;100.00;100679.81;5029840;28;19929;-77
2022/11/15 03:17:23;;;;;;;;;;;;;;;5.33;100.00;100669.31;5027460;28;19928;-77
2022/11/15 03:19:51;;;;;;;;;;;;;;;5.35;100.00;100668.34;5015164;28;21432;-77
2022/11/15 03:22:17;;;;;;;;;;;;;;;5.36;100.00;100667.44;5059155;28;19935;-77
2022/11/15 03:24:43;;;;;;;;;;;;;;;5.37;100.00;100661.28;5025611;28;20006;-77
2022/11/15 03:27:09;;;;;;;;;;;;;;;5.39;100.00;100654.22;5010276;28;19925;-77
2022/11/15 03:29:39;;;;;;;;;;;;;;;5.42;100.00;100653.28;5027440;28;19968;-77
2022/11/15 03:32:09;;;;;;;;;;;;;;;5.44;100.00;100654.97;5059278;28;20042;-77
2022/11/15 03:34:39;;;;;;;;;;;;;;;5.46;100.00;100649.69;5030273;28;19979;-76
2022/11/15 03:37:05;;;;;;;;;;;;;;;5.48;100.00;100645.25;5059277;28;19928;-77
2022/11/15 03:39:30;;;;;;;;;;;;;;;5.50;100.00;100648.69;5042371;28;19929;-77
2022/11/15 03:42:15;;;;;;;;;;;;;;;5.52;100.00;100638.16;5027153;28;19929;-77
2022/11/15 03:44:41;;;;;;;;;;;;;;;5.52;100.00;100635.53;5027982;28;19936;-77
2022/11/15 03:47:10;;;;;;;;;;;;;;;5.55;100.00;100641.53;5027652;28;20016;-77
2022/11/15 03:49:36;;;;;;;;;;;;;;;5.56;100.00;100634.53;5027615;28;20067;-77
2022/11/15 03:52:04;;;;;;;;;;;;;;;5.57;100.00;100637.09;5042346;28;19972;-77
2022/11/15 03:54:30;;;;;;;;;;;;;;;5.61;100.00;100637.03;5031609;28;20336;-77
2022/11/15 03:56:55;;;;;;;;;;;;;;;5.62;100.00;100634.34;5031382;28;19961;-77
2022/11/15 03:59:21;;;;;;;;;;;;;;;5.64;100.00;100637.81;5028522;28;19952;-77
2022/11/15 04:01:46;;;;;;;;;;;;;;;5.66;100.00;100643.88;5027339;28;19944;-77
2022/11/15 04:04:11;;;;;;;;;;;;;;;5.68;100.00;100636.81;5026133;28;20460;-77
2022/11/15 04:06:37;;;;;;;;;;;;;;;5.69;100.00;100633.28;5026914;28;19936;-77
2022/11/15 04:09:02;;;;;;;;;;;;;;;5.70;100.00;100637.63;5025922;28;19968;-77
2022/11/15 04:11:28;;;;;;;;;;;;;;;5.73;100.00;100634.06;5017827;28;20287;-77
2022/11/15 04:13:53;;;;;;;;;;;;;;;5.74;100.00;100635.78;5041431;28;19925;-77
2022/11/15 04:16:19;;;;;;;;;;;;;;;5.75;100.00;100627.00;5026871;28;19940;-77
2022/11/15 04:18:44;;;;;;;;;;;;;;;5.77;100.00;100635.69;5027113;28;20407;-77
2022/11/15 04:24:12;;;;;;;;;;;;;;;5.80;100.00;100630.34;5026434;28;19933;-77
2022/11/15 04:26:37;;;;;;;;;;;;;;;5.84;100.00;100639.00;5030594;28;19980;-77
2022/11/15 04:31:47;;;;;;;;;;;;;;;5.88;100.00;100638.00;5027112;28;19933;-77
2022/11/15 04:34:12;;;;;;;;;;;;;;;5.91;100.00;100644.94;5026159;28;20291;-77
2022/11/15 04:39:21;;;;;;;;;;;;;;;5.94;100.00;100635.19;5045850;28;19979;-77
2022/11/15 04:41:47;;;;;;;;;;;;;;;5.98;100.00;100628.06;5029936;28;20011;-77
2022/11/15 04:44:12;;;;;;;;;;;;;;;6.02;100.00;100629.75;5045464;28;19935;-77
2022/11/15 04:46:38;;;;;;;;;;;;;;;6.04;100.00;100614.78;5046199;28;20342;-77
2022/11/15 04:49:03;;;;;;;;;;;;;;;6.08;100.00;100620.81;5046008;28;19947;-77
2022/11/15 04:51:29;;;;;;;;;;;;;;;6.13;100.00;100618.03;5046015;28;19929;-77
2022/11/15 04:53:54;;;;;;;;;;;;;;;6.16;100.00;100615.34;5030309;28;19928;-77
2022/11/15 04:56:19;;;;;;;;;;;;;;;6.20;100.00;100616.94;5046280;28;19925;-77
2022/11/15 04:58:45;;;;;;;;;;;;;;;6.23;100.00;100608.97;5044777;28;19928;-77
2022/11/15 05:01:11;;;;;;;;;;;;;;;6.28;100.00;100611.47;5059232;28;19983;-77
2022/11/15 05:06:21;;;;;;;;;;;;;;;6.36;100.00;100615.56;5045756;28;20330;-77
2022/11/15 05:08:47;;;;;;;;;;;;;;;6.41;100.00;100609.28;5045508;28;19967;-77
2022/11/15 05:11:12;;;;;;;;;;;;;;;6.47;100.00;100614.34;5045658;28;20260;-77
2022/11/15 05:13:37;;;;;;;;;;;;;;;6.51;100.00;100616.00;5045425;28;20940;-77
2022/11/15 05:16:03;;;;;;;;;;;;;;;6.56;100.00;100614.09;5035839;28;19940;-77
2022/11/15 05:18:28;;;;;;;;;;;;;;;6.60;100.00;100615.69;5015453;28;19947;-77
2022/11/15 05:20:54;;;;;;;;;;;;;;;6.65;100.00;100618.19;5029809;28;19933;-77
2022/11/15 05:23:19;;;;;;;;;;;;;;;6.69;100.00;100613.69;5031329;28;20572;-77
2022/11/15 05:25:45;;;;;;;;;;;;;;;6.72;100.00;100614.44;5060315;28;19929;-77
2022/11/15 05:28:10;;;;;;;;;;;;;;;6.77;100.00;100612.50;5026544;28;19964;-77
2022/11/15 05:30:36;;;;;;;;;;;;;;;6.80;100.00;100614.16;5046327;28;20045;-77
2022/11/15 05:33:01;;;;;;;;;;;;;;;6.85;100.00;100608.75;5029609;28;19928;-77
2022/11/15 05:35:31;;;;;;;;;;;;;;;6.90;100.00;100596.31;5035870;28;19964;-77
2022/11/15 05:37:57;;;;;;;;;;;;;;;6.95;100.00;100598.78;5035878;28;19931;-77
2022/11/15 05:40:22;;;;;;;;;;;;;;;6.98;100.00;100596.06;5046531;28;20115;-77
2022/11/15 05:42:47;;;;;;;;;;;;;;;7.02;100.00;100597.66;5045144;28;19932;-77
2022/11/15 05:45:13;;;;;;;;;;;;;;;7.05;100.00;100597.56;5030141;28;19925;-77
2022/11/15 05:47:38;;;;;;;;;;;;;;;7.09;100.00;100595.69;5029168;28;19924;-77
2022/11/15 05:50:04;;;;;;;;;;;;;;;7.12;100.00;100596.44;5026171;28;19925;-77
2022/11/15 05:52:30;;;;;;;;;;;;;;;7.17;100.00;100599.75;5059244;28;20362;-77
2022/11/15 05:54:55;;;;;;;;;;;;;;;7.21;100.00;100597.88;5028321;28;20125;-77
2022/11/15 05:57:21;;;;;;;;;;;;;;;7.26;100.00;100613.50;5044738;28;19943;-77
2022/11/15 05:59:46;;;;;;;;;;;;;;;7.27;100.00;100607.34;5030388;28;19989;-77
2022/11/15 06:02:12;;;;;;;;;;;;;;;7.31;100.00;100616.84;5045408;28;19924;-76
2022/11/15 06:04:37;;;;;;;;;;;;;;;7.33;100.00;100615.00;5044957;28;20452;-76
2022/11/15 06:07:02;;;;;;;;;;;;;;;7.37;100.00;100615.75;5029206;28;19925;-77
2022/11/15 06:09:28;;;;;;;;;;;;;;;7.39;100.00;100606.03;5043922;28;19928;-77
2022/11/15 06:11:53;;;;;;;;;;;;;;;7.42;100.00;100601.50;5044992;28;19925;-76
2022/11/15 06:14:19;;;;;;;;;;;;;;;7.45;100.00;100606.69;5044927;28;20398;-77
2022/11/15 06:16:44;;;;;;;;;;;;;;;7.50;100.00;100610.91;5024695;28;19928;-77
2022/11/15 06:19:10;;;;;;;;;;;;;;;7.52;100.00;100598.56;5028969;28;19932;-77
2022/11/15 06:21:35;;;;;;;;;;;;;;;7.54;100.00;100607.25;5025392;28;19925;-76
2022/11/15 06:24:01;;;;;;;;;;;;;;;7.56;100.00;100611.56;5044818;28;19935;-76
2022/11/15 06:26:26;;;;;;;;;;;;;;;7.58;100.00;100609.72;5044967;28;20433;-76
2022/11/15 06:28:51;;;;;;;;;;;;;;;7.61;100.00;100611.38;5044119;28;19932;-77
2022/11/15 06:31:17;;;;;;;;;;;;;;;7.63;100.00;100614.81;5044205;28;19933;-76
2022/11/15 06:33:42;;;;;;;;;;;;;;;7.65;100.00;100620.91;5044917;28;19928;-76
2022/11/15 06:36:09;;;;;;;;;;;;;;;7.68;100.00;100626.03;5043882;28;19925;-76
2022/11/15 06:38:34;;;;;;;;;;;;;;;7.71;100.00;100630.34;5040979;28;19929;-76
2022/11/15 06:41:04;;;;;;;;;;;;;;;7.72;100.00;100632.94;5025062;28;20076;-77
2022/11/15 06:43:29;;;;;;;;;;;;;;;7.75;100.00;100637.25;5043685;28;19932;-77
2022/11/15 06:45:55;;;;;;;;;;;;;;;7.79;100.00;100643.25;5044609;28;19975;-76
2022/11/15 06:48:20;;;;;;;;;;;;;;;7.83;100.00;100639.56;5045222;28;19928;-76
2022/11/15 06:50:56;;;;;;;;;;;;;;;7.86;100.00;100644.75;5043844;28;19971;-77
2022/11/15 06:53:21;;;;;;;;;;;;;;;7.88;100.00;100642.91;5028391;28;19990;-76
2022/11/15 06:55:46;;;;;;;;;;;;;;;7.92;100.00;100647.16;5042510;28;19932;-76
2022/11/15 06:58:12;;;;;;;;;;;;;;;7.96;100.00;100640.00;5043889;28;20021;-77
2022/11/15 07:00:37;;;;;;;;;;;;;;;7.99;100.00;100642.50;5045323;28;19925;-75
2022/11/15 07:03:03;;;;;;;;;;;;;;;8.00;100.00;100645.06;5045565;28;20348;-75
2022/11/15 07:05:28;;;;;;;;;;;;;;;8.05;100.00;100651.97;5027731;28;20286;-76
2022/11/15 07:07:54;;;;;;;;;;;;;;;8.07;100.00;100656.25;5047940;28;20027;-75
2022/11/15 07:10:20;;;;;;;;;;;;;;;8.11;100.00;100651.72;5047338;28;19972;-76
2022/11/15 07:12:48;;;;;;;;;;;;;;;8.13;100.00;100645.47;5021007;28;20518;-77
2022/11/15 07:15:14;;;;;;;;;;;;;;;8.14;100.00;100649.84;5031812;28;21340;-77
2022/11/15 07:17:40;;;;;;;;;;;;;;;8.17;100.00;100653.28;5047302;28;21212;-77
2022/11/15 07:20:08;;;;;;;;;;;;;;;8.19;100.00;100661.97;5046601;28;19933;-77
2022/11/15 07:22:33;;;;;;;;;;;;;;;8.21;100.00;100658.38;5027881;28;19928;-77
2022/11/15 07:24:59;;;;;;;;;;;;;;;8.21;100.00;100661.00;5028392;28;20505;-77
2022/11/15 07:27:24;;;;;;;;;;;;;;;8.22;100.00;100665.34;5027543;28;19964;-77
2022/11/15 07:29:50;;;;;;;;;;;;;;;8.24;100.00;100671.41;5017435;28;19935;-77
2022/11/15 07:32:15;;;;;;;;;;;;;;;8.26;100.00;100668.72;5047632;28;20020;-77
2022/11/15 07:34:41;;;;;;;;;;;;;;;8.28;100.00;100673.03;5047664;28;19932;-77
2022/11/15 07:37:06;;;;;;;;;;;;;;;8.31;100.00;100671.19;5033818;28;19971;-77
2022/11/15 07:39:35;;;;;;;;;;;;;;;8.32;100.00;100665.84;5047438;28;19968;-77
2022/11/15 07:44:44;;;;;;;;;;;;;;;8.37;100.00;100660.41;5048101;28;19928;-77
2022/11/15 07:47:10;;;;;;;;;;;;;;;8.39;100.00;100663.84;5047414;28;19932;-77
2022/11/15 07:49:35;;;;;;;;;;;;;;;8.41;100.00;100660.22;5046292;28;19960;-77
2022/11/15 07:52:03;;;;;;;;;;;;;;;8.45;100.00;100660.97;5016735;28;20003;-77
2022/11/15 07:54:29;;;;;;;;;;;;;;;8.47;100.00;100656.50;5049777;28;20360;-77
2022/11/15 07:56:54;;;;;;;;;;;;;;;8.48;100.00;100652.94;5026819;28;19934;-77
2022/11/15 07:59:20;;;;;;;;;;;;;;;8.51;100.00;100663.38;5017067;28;19929;-77
2022/11/15 08:01:45;;;;;;;;;;;;;;;8.54;100.00;100654.47;5047257;28;19929;-77
2022/11/15 08:04:11;;;;;;;;;;;;;;;8.56;100.00;100657.94;5033005;28;19928;-76
2022/11/15 08:06:36;;;;;;;;;;;;;;;8.59;100.00;100662.22;5030816;28;19976;-77
2022/11/15 08:09:02;;;;;;;;;;;;;;;8.63;100.00;100667.31;5027651;28;20000;-77
2022/11/15 08:11:28;;;;;;;;;;;;;;;8.64;100.00;100660.25;5018223;28;19925;-84
2022/11/15 08:13:53;;;;;;;;;;;;;;;8.64;100.00;100662.91;5030726;28;19935;-77
2022/11/15 08:16:18;;;;;;;;;;;;;;;8.67;100.00;100665.44;5046067;28;19932;-78
2022/11/15 08:18:44;;;;;;;;;;;;;;;8.69;100.00;100666.22;5046747;28;20414;-78
2022/11/15 08:21:09;;;;;;;;;;;;;;;8.72;100.00;100660.78;5047272;28;19929;-77
2022/11/15 08:23:35;;;;;;;;;;;;;;;8.74;100.00;100655.47;5031346;28;19986;-77
2022/11/15 08:26:02;;;;;;;;;;;;;;;8.79;100.00;100683.41;5027251;28;19936;-77
2022/11/15 08:28:27;;;;;;;;;;;;;;;8.85;100.00;100670.84;5030499;28;20063;-77
2022/11/15 08:30:53;;;;;;;;;;;;;;;8.90;100.00;100666.25;5043494;28;19932;-77
2022/11/15 08:33:18;;;;;;;;;;;;;;;8.94;100.00;100662.56;5046016;28;21194;-77
2022/11/15 08:35:43;;;;;;;;;;;;;;;8.94;100.00;100662.56;5036732;28;19932;-77
2022/11/15 08:38:09;;;;;;;;;;;;;;;8.95;100.00;100662.50;5045633;28;21547;-77
2022/11/15 08:40:34;;;;;;;;;;;;;;;8.95;100.00;100661.66;5043004;28;20007;-77
2022/11/15 08:43:02;;;;;;;;;;;;;;;8.97;100.00;100667.72;5019741;28;21479;-77
2022/11/15 08:45:30;;;;;;;;;;;;;;;8.99;100.00;100663.22;5046616;28;19963;-77
2022/11/15 08:47:56;;;;;;;;;;;;;;;9.03;100.00;100661.31;5030425;28;20298;-77
2022/11/15 08:50:21;;;;;;;;;;;;;;;9.05;100.00;100656.84;5046427;28;19933;-77
2022/11/15 08:52:48;;;;;;;;;;;;;;;9.07;100.00;100655.88;5029780;28;19928;-77
2022/11/15 08:55:13;;;;;;;;;;;;;;;9.09;100.00;100648.72;5044629;28;20239;-77
2022/11/15 08:57:41;;;;;;;;;;;;;;;9.14;100.00;100640.59;5045968;28;21523;-77
2022/11/15 09:00:07;;;;;;;;;;;;;;;9.18;100.00;100636.03;5026231;28;20007;-77
2022/11/15 09:02:32;;;;;;;;;;;;;;;9.19;100.00;100640.41;5044997;28;19966;-77
2022/11/15 09:04:57;;;;;;;;;;;;;;;9.20;100.00;100632.41;5045290;28;19997;-77
2022/11/15 09:07:23;;;;;;;;;;;;;;;9.22;100.00;100641.13;5045720;28;19980;-76
2022/11/15 09:09:49;;;;;;;;;;;;;;;9.24;100.00;100639.28;5029170;28;19924;-77
2022/11/15 09:12:14;;;;;;;;;;;;;;;9.27;100.00;100640.06;5043430;28;21403;-77
2022/11/15 09:14:40;;;;;;;;;;;;;;;9.28;100.00;100636.50;5045240;28;20514;-77
2022/11/15 09:17:08;;;;;;;;;;;;;;;9.29;100.00;100639.09;5014348;28;19933;-77
2022/11/15 09:19:34;;;;;;;;;;;;;;;9.31;100.00;100637.22;5043016;28;19989;-77
2022/11/15 09:21:59;;;;;;;;;;;;;;;9.32;100.00;100638.94;5025754;28;20015;-76
2022/11/15 09:24:25;;;;;;;;;;;;;;;9.35;100.00;100632.66;5011957;28;19936;-76
2022/11/15 09:26:51;;;;;;;;;;;;;;;9.35;100.00;100632.66;5025621;28;19928;-75
2022/11/15 09:29:17;;;;;;;;;;;;;;;9.33;100.00;100627.44;5025999;28;19935;-77
2022/11/15 09:31:42;;;;;;;;;;;;;;;9.30;100.00;100621.44;5044191;28;19929;-77
2022/11/15 09:34:07;;;;;;;;;;;;;;;9.30;100.00;100630.22;5043655;28;19928;-76
2022/11/15 09:36:33;;;;;;;;;;;;;;;9.30;100.00;100632.88;5045366;28;19924;-76
2022/11/15 09:38:59;;;;;;;;;;;;;;;9.29;100.00;100638.22;5044729;28;20483;-76
2022/11/15 09:41:25;;;;;;;;;;;;;;;9.31;100.00;100637.22;5028992;28;19928;-76
2022/11/15 09:44:09;;;;;;;;;;;;;;;9.34;100.00;100636.25;5044732;28;19928;-75
2022/11/15 09:47:07;;;;;;;;;;;;;;;9.35;100.00;100630.91;5045141;28;20215;-76
2022/11/15 09:49:32;;;;;;;;;;;;;;;9.38;100.00;100641.31;5033424;28;19946;-76
2022/11/15 09:51:58;;;;;;;;;;;;;;;9.40;100.00;100625.41;5044258;28;19954;-77
2022/11/15 09:54:28;;;;;;;;;;;;;;;9.44;100.00;100621.72;5029041;28;19925;-76
2022/11/15 09:56:55;;;;;;;;;;;;;;;9.47;100.00;100625.97;5030290;28;19989;-76
2022/11/15 09:59:23;;;;;;;;;;;;;;;9.51;100.00;100615.22;5028554;28;20038;-76
2022/11/15 10:01:49;;;;;;;;;;;;;;;9.56;100.00;100614.16;5042283;28;20015;-76
2022/11/15 10:04:14;;;;;;;;;;;;;;;9.59;100.00;100604.28;5044186;28;20384;-76
2022/11/15 10:06:44;;;;;;;;;;;;;;;9.63;100.00;100611.16;5043990;28;19924;-76
2022/11/15 10:09:21;;;;;;;;;;;;;;;9.65;100.00;100604.03;5005681;28;19936;-77
2022/11/15 10:11:46;;;;;;;;;;;;;;;9.69;100.00;100601.25;5044187;28;20403;-76
2022/11/15 10:14:18;;;;;;;;;;;;;;;9.72;100.00;100598.47;5041607;28;19925;-77
2022/11/15 10:17:03;;;;;;;;;;;;;;;9.76;100.00;100598.25;5028651;28;19928;-76
2022/11/15 10:19:47;;;;;;;;;;;;;;;9.83;100.00;100601.47;5033211;28;20379;-77
2022/11/15 10:22:22;;;;;;;;;;;;;;;9.88;100.00;100593.31;5043835;28;19928;-76
2022/11/15 10:24:47;;;;;;;;;;;;;;;9.92;100.00;100600.19;5025460;28;19942;-76
2022/11/15 10:27:17;;;;;;;;;;;;;;;9.94;100.00;100590.41;5044253;28;20054;-77
2022/11/15 10:29:46;;;;;;;;;;;;;;;9.97;100.00;100592.03;5028753;28;19932;-76
2022/11/15 10:32:12;;;;;;;;;;;;;;;10.00;100.00;100591.88;5017858;28;19928;-76
2022/11/15 10:34:37;;;;;;;;;;;;;;;10.00;100.00;100582.19;5038031;28;19939;-77
2022/11/15 10:37:03;;;;;;;;;;;;;;;10.04;100.00;100593.47;5043858;28;19925;-77
2022/11/15 10:39:28;;;;;;;;;;;;;;;10.05;100.00;100588.13;5028456;28;19935;-78
2022/11/15 10:41:54;;;;;;;;;;;;;;;10.07;100.00;100582.72;5047316;28;19925;-77
2022/11/15 10:44:22;;;;;;;;;;;;;;;10.10;100.00;100585.25;5046190;28;21765;-77
2022/11/15 10:46:50;;;;;;;;;;;;;;;10.13;100.00;100582.44;5044892;28;19936;-78
2022/11/15 10:49:16;;;;;;;;;;;;;;;10.18;100.00;100579.56;5030584;28;19939;-77
2022/11/15 10:51:55;;;;;;;;;;;;;;;10.22;100.00;100572.34;5031373;28;19935;-78
2022/11/15 10:54:24;;;;;;;;;;;;;;;10.27;100.00;100565.91;5028626;28;19928;-78
2022/11/15 10:56:50;;;;;;;;;;;;;;;10.31;100.00;100561.31;5044668;28;20173;-77
2022/11/15 10:59:18;;;;;;;;;;;;;;;10.33;100.00;100556.81;5015380;28;19929;-78
2022/11/15 11:01:47;;;;;;;;;;;;;;;10.40;100.00;100560.88;5028043;28;19935;-77
2022/11/15 11:04:12;;;;;;;;;;;;;;;10.41;100.00;100549.34;5044727;28;20146;-77
2022/11/15 11:06:51;;;;;;;;;;;;;;;10.43;100.00;100555.47;5044590;28;19928;-78
2022/11/15 11:09:23;;;;;;;;;;;;;;;10.48;100.00;100555.22;5044170;28;19963;-77
2022/11/15 11:11:50;;;;;;;;;;;;;;;10.49;100.00;100556.06;5044744;28;19924;-77
2022/11/15 11:14:31;;;;;;;;;;;;;;;10.50;100.00;100553.34;5027009;28;21409;-78
2022/11/15 11:17:02;;;;;;;;;;;;;;;10.49;100.00;100553.44;5028752;28;20057;-78
2022/11/15 11:19:47;;;;;;;;;;;;;;;10.49;100.00;100553.44;5029971;28;19928;-78
2022/11/15 11:22:15;;;;;;;;;;;;;;;10.46;100.00;100563.25;5044216;28;19977;-79
2022/11/15 11:24:46;;;;;;;;;;;;;;;10.45;100.00;100558.88;5043488;28;19929;-78
2022/11/15 11:27:21;;;;;;;;;;;;;;;10.44;100.00;100554.53;5040104;28;20423;-77
2022/11/15 11:29:47;;;;;;;;;;;;;;;10.42;100.00;100550.22;5026590;28;20403;-77
2022/11/15 11:32:36;;;;;;;;;;;;;;;10.42;100.00;100544.91;5031666;28;19963;-77
2022/11/15 11:35:06;;;;;;;;;;;;;;;10.42;100.00;100544.91;5024492;28;20335;-79
2022/11/15 11:37:49;;;;;;;;;;;;;;;10.42;100.00;100551.09;5028387;28;20311;-79
2022/11/15 11:40:32;;;;;;;;;;;;;;;10.43;100.00;100547.53;5041781;28;20344;-78
2022/11/15 11:43:01;;;;;;;;;;;;;;;10.44;100.00;100543.94;5015288;28;20299;-77
2022/11/15 11:45:26;;;;;;;;;;;;;;;10.45;100.00;100534.19;5025117;28;19929;-77
2022/11/15 11:48:11;;;;;;;;;;;;;;;10.46;100.00;100526.19;5025338;28;19966;-77
2022/11/15 11:50:37;;;;;;;;;;;;;;;10.50;100.00;100524.25;5025129;28;21577;-77
2022/11/15 11:53:21;;;;;;;;;;;;;;;10.54;100.00;100524.94;5032342;28;20042;-77
2022/11/15 11:55:47;;;;;;;;;;;;;;;10.57;100.00;100509.75;5044028;28;19936;-76
2022/11/15 11:58:14;;;;;;;;;;;;;;;10.62;100.00;100512.16;5025547;28;20372;-77
2022/11/15 12:00:43;;;;;;;;;;;;;;;10.66;100.00;100508.44;5026145;28;19995;-78
2022/11/15 12:03:12;;;;;;;;;;;;;;;10.69;100.00;100500.34;5040676;28;19928;-77
2022/11/15 12:05:40;;;;;;;;;;;;;;;10.71;100.00;100498.47;5043075;28;20572;-77
2022/11/15 12:08:18;;;;;;;;;;;;;;;10.72;100.00;100500.19;5043286;28;20411;-78
2022/11/15 12:10:44;;;;;;;;;;;;;;;10.74;100.00;100502.75;5043128;28;19928;-77
2022/11/15 12:13:11;;;;;;;;;;;;;;;10.73;100.00;100504.53;5044913;28;19937;-78
2022/11/15 12:15:39;;;;;;;;;;;;;;;10.76;100.00;100502.66;5026278;28;19928;-78
2022/11/15 12:18:05;;;;;;;;;;;;;;;10.75;100.00;100498.31;5008042;28;19928;-78
2022/11/15 12:20:33;;;;;;;;;;;;;;;10.80;100.00;100501.59;5043431;28;20346;-78
2022/11/15 12:23:02;;;;;;;;;;;;;;;10.83;100.00;100498.75;5041073;28;19935;-77
2022/11/15 12:25:28;;;;;;;;;;;;;;;10.83;100.00;100491.69;5043737;28;19924;-79
2022/11/15 12:27:58;;;;;;;;;;;;;;;10.86;100.00;100498.63;5044270;28;19935;-78
2022/11/15 12:30:25;;;;;;;;;;;;;;;10.88;100.00;100499.38;5043966;28;20604;-79
2022/11/15 12:33:00;;;;;;;;;;;;;;;10.93;100.00;100502.66;5023853;28;20074;-78
2022/11/15 12:35:35;;;;;;;;;;;;;;;10.99;100.00;100502.34;5023209;28;20281;-76
2022/11/15 12:38:00;;;;;;;;;;;;;;;11.02;100.00;100497.81;5042955;28;19929;-77
2022/11/15 12:40:33;;;;;;;;;;;;;;;11.01;100.00;100494.31;5042984;28;19951;-78
2022/11/15 12:42:58;;;;;;;;;;;;;;;11.03;100.00;100486.25;5026832;28;20482;-78
2022/11/15 12:45:37;;;;;;;;;;;;;;;11.03;100.00;100486.25;5042130;28;20027;-78
2022/11/15 12:48:15;;;;;;;;;;;;;;;11.01;100.00;100478.41;5014705;28;19936;-77
2022/11/15 12:50:56;;;;;;;;;;;;;;;10.98;100.00;100479.44;5027712;28;19999;-78
2022/11/15 12:53:24;;;;;;;;;;;;;;;10.96;100.00;100485.75;5043218;28;19928;-78